sensor_id;sensor_type;location;lat;lon;timestamp;temperature;humidity
32749;DHT22;19119;52.474;13.710;2023-02-02T00:01:32;4.20;99.90
32749;DHT22;19119;52.474;13.710;2023-02-02T00:03:58;4.30;99.90
32749;DHT22;19119;52.474;13.710;2023-02-02T00:06:27;4.30;99.90
32749;DHT22;19119;52.474;13.710;2023-02-02T00:08:54;4.30;99.90
32749;DHT22;19119;52.474;13.710;2023-02-02T00:11:20;4.30;99.90
32749;DHT22;19119;52.474;13.710;2023-02-02T00:13:45;4.30;99.90
32749;DHT22;19119;52.474;13.710;2023-02-02T00:16:34;4.40;99.90
32749;DHT22;19119;52.474;13.710;2023-02-02T00:19:21;4.50;99.90
32749;DHT22;19119;52.474;13.710;2023-02-02T00:21:47;4.50;99.90
32749;DHT22;19119;52.474;13.710;2023-02-02T00:24:14;4.50;99.90
32749;DHT22;19119;52.474;13.710;2023-02-02T00:26:42;4.60;99.90
32749;DHT22;19119;52.474;13.710;2023-02-02T00:29:16;4.60;99.90
32749;DHT22;19119;52.474;13.710;2023-02-02T00:31:42;4.70;99.90
32749;DHT22;19119;52.474;13.710;2023-02-02T00:34:13;4.70;99.90
32749;DHT22;19119;52.474;13.710;2023-02-02T00:36:39;4.70;99.90
32749;DHT22;19119;52.474;13.710;2023-02-02T00:39:05;4.70;99.90
32749;DHT22;19119;52.474;13.710;2023-02-02T00:41:31;4.80;99.90
32749;DHT22;19119;52.474;13.710;2023-02-02T00:43:56;4.80;99.90
32749;DHT22;19119;52.474;13.710;2023-02-02T00:46:41;4.80;99.90
32749;DHT22;19119;52.474;13.710;2023-02-02T00:49:07;4.80;99.90
32749;DHT22;19119;52.474;13.710;2023-02-02T00:51:34;4.70;99.90
32749;DHT22;19119;52.474;13.710;2023-02-02T00:53:59;4.70;99.90
32749;DHT22;19119;52.474;13.710;2023-02-02T00:56:25;4.70;99.90
32749;DHT22;19119;52.474;13.710;2023-02-02T00:58:51;4.70;99.90
32749;DHT22;19119;52.474;13.710;2023-02-02T01:01:20;4.80;99.90
32749;DHT22;19119;52.474;13.710;2023-02-02T01:03:47;4.70;99.90
32749;DHT22;19119;52.474;13.710;2023-02-02T01:06:12;4.60;99.90
32749;DHT22;19119;52.474;13.710;2023-02-02T01:08:38;4.60;99.90
32749;DHT22;19119;52.474;13.710;2023-02-02T01:11:04;4.60;99.90
32749;DHT22;19119;52.474;13.710;2023-02-02T01:13:30;4.70;99.90
32749;DHT22;19119;52.474;13.710;2023-02-02T01:15:56;4.70;99.90
32749;DHT22;19119;52.474;13.710;2023-02-02T01:18:22;4.70;99.90
32749;DHT22;19119;52.474;13.710;2023-02-02T01:20:59;4.70;99.90
32749;DHT22;19119;52.474;13.710;2023-02-02T01:23:25;4.60;99.90
32749;DHT22;19119;52.474;13.710;2023-02-02T01:25:58;4.70;99.90
32749;DHT22;19119;52.474;13.710;2023-02-02T01:28:25;4.70;99.90
32749;DHT22;19119;52.474;13.710;2023-02-02T01:30:51;4.70;99.90
32749;DHT22;19119;52.474;13.710;2023-02-02T01:33:17;4.70;99.90
32749;DHT22;19119;52.474;13.710;2023-02-02T01:35:54;4.60;99.90
32749;DHT22;19119;52.474;13.710;2023-02-02T01:38:21;4.70;99.90
32749;DHT22;19119;52.474;13.710;2023-02-02T01:40:50;4.60;99.90
32749;DHT22;19119;52.474;13.710;2023-02-02T01:43:25;4.60;99.90
32749;DHT22;19119;52.474;13.710;2023-02-02T01:45:52;4.60;99.90
32749;DHT22;19119;52.474;13.710;2023-02-02T01:48:24;4.60;99.90
32749;DHT22;19119;52.474;13.710;2023-02-02T01:50:54;4.50;99.90
32749;DHT22;19119;52.474;13.710;2023-02-02T01:53:21;4.50;99.90
32749;DHT22;19119;52.474;13.710;2023-02-02T01:55:48;4.40;99.90
32749;DHT22;19119;52.474;13.710;2023-02-02T01:58:21;4.40;99.90
32749;DHT22;19119;52.474;13.710;2023-02-02T02:00:47;4.50;99.90
32749;DHT22;19119;52.474;13.710;2023-02-02T02:03:15;4.40;99.90
32749;DHT22;19119;52.474;13.710;2023-02-02T02:05:50;4.40;99.90
32749;DHT22;19119;52.474;13.710;2023-02-02T02:08:24;4.50;99.90
32749;DHT22;19119;52.474;13.710;2023-02-02T02:10:51;4.60;99.90
32749;DHT22;19119;52.474;13.710;2023-02-02T02:13:18;4.60;99.90
32749;DHT22;19119;52.474;13.710;2023-02-02T02:15:58;4.70;99.90
32749;DHT22;19119;52.474;13.710;2023-02-02T02:18:58;4.70;99.90
32749;DHT22;19119;52.474;13.710;2023-02-02T02:21:44;4.70;99.90
32749;DHT22;19119;52.474;13.710;2023-02-02T02:36:23;4.70;99.90
32749;DHT22;19119;52.474;13.710;2023-02-02T02:39:09;4.70;99.90
32749;DHT22;19119;52.474;13.710;2023-02-02T02:41:42;4.80;99.90
32749;DHT22;19119;52.474;13.710;2023-02-02T02:44:11;4.80;99.90
32749;DHT22;19119;52.474;13.710;2023-02-02T02:46:38;4.80;99.90
32749;DHT22;19119;52.474;13.710;2023-02-02T02:49:07;4.90;99.90
32749;DHT22;19119;52.474;13.710;2023-02-02T02:51:48;5.00;99.90
32749;DHT22;19119;52.474;13.710;2023-02-02T02:54:26;5.00;99.90
32749;DHT22;19119;52.474;13.710;2023-02-02T02:57:16;5.00;99.90
32749;DHT22;19119;52.474;13.710;2023-02-02T03:03:04;5.10;99.90
32749;DHT22;19119;52.474;13.710;2023-02-02T03:08:51;5.10;99.90
32749;DHT22;19119;52.474;13.710;2023-02-02T03:11:18;5.20;99.90
32749;DHT22;19119;52.474;13.710;2023-02-02T03:13:44;5.20;99.90
32749;DHT22;19119;52.474;13.710;2023-02-02T03:16:10;5.20;99.90
32749;DHT22;19119;52.474;13.710;2023-02-02T03:18:36;5.20;99.90
32749;DHT22;19119;52.474;13.710;2023-02-02T03:21:02;5.20;99.90
32749;DHT22;19119;52.474;13.710;2023-02-02T03:23:28;5.20;99.90
32749;DHT22;19119;52.474;13.710;2023-02-02T03:25:54;5.30;99.90
32749;DHT22;19119;52.474;13.710;2023-02-02T03:28:20;5.30;99.90
32749;DHT22;19119;52.474;13.710;2023-02-02T03:30:47;5.40;99.90
32749;DHT22;19119;52.474;13.710;2023-02-02T03:33:13;5.30;99.90
32749;DHT22;19119;52.474;13.710;2023-02-02T03:35:39;5.10;99.90
32749;DHT22;19119;52.474;13.710;2023-02-02T03:38:05;5.00;99.90
32749;DHT22;19119;52.474;13.710;2023-02-02T03:40:31;4.90;99.90
32749;DHT22;19119;52.474;13.710;2023-02-02T03:42:56;4.80;99.90
32749;DHT22;19119;52.474;13.710;2023-02-02T03:45:22;4.80;99.90
32749;DHT22;19119;52.474;13.710;2023-02-02T03:47:48;4.70;99.90
32749;DHT22;19119;52.474;13.710;2023-02-02T03:50:14;4.80;99.90
32749;DHT22;19119;52.474;13.710;2023-02-02T03:52:39;4.70;99.90
32749;DHT22;19119;52.474;13.710;2023-02-02T03:55:05;4.70;99.90
32749;DHT22;19119;52.474;13.710;2023-02-02T03:57:31;4.70;99.90
32749;DHT22;19119;52.474;13.710;2023-02-02T03:59:57;4.80;99.90
32749;DHT22;19119;52.474;13.710;2023-02-02T04:02:22;4.70;99.90
32749;DHT22;19119;52.474;13.710;2023-02-02T04:04:48;4.70;99.90
32749;DHT22;19119;52.474;13.710;2023-02-02T04:07:13;4.80;99.90
32749;DHT22;19119;52.474;13.710;2023-02-02T04:09:39;4.80;99.90
32749;DHT22;19119;52.474;13.710;2023-02-02T04:12:04;4.80;99.90
32749;DHT22;19119;52.474;13.710;2023-02-02T04:14:30;4.80;99.90
32749;DHT22;19119;52.474;13.710;2023-02-02T04:16:55;4.80;99.90
32749;DHT22;19119;52.474;13.710;2023-02-02T04:19:21;4.80;99.90
32749;DHT22;19119;52.474;13.710;2023-02-02T04:21:46;4.70;99.90
32749;DHT22;19119;52.474;13.710;2023-02-02T04:24:13;4.80;99.90
32749;DHT22;19119;52.474;13.710;2023-02-02T04:26:39;4.80;99.90
32749;DHT22;19119;52.474;13.710;2023-02-02T04:29:06;4.80;99.90
32749;DHT22;19119;52.474;13.710;2023-02-02T04:31:31;4.90;99.90
32749;DHT22;19119;52.474;13.710;2023-02-02T04:33:57;4.90;99.90
32749;DHT22;19119;52.474;13.710;2023-02-02T04:36:23;4.90;99.90
32749;DHT22;19119;52.474;13.710;2023-02-02T04:38:49;4.90;99.90
32749;DHT22;19119;52.474;13.710;2023-02-02T04:41:15;4.90;99.90
32749;DHT22;19119;52.474;13.710;2023-02-02T04:43:43;4.90;99.90
32749;DHT22;19119;52.474;13.710;2023-02-02T04:46:08;4.90;99.90
32749;DHT22;19119;52.474;13.710;2023-02-02T04:51:14;4.90;99.90
32749;DHT22;19119;52.474;13.710;2023-02-02T04:53:40;4.90;99.90
32749;DHT22;19119;52.474;13.710;2023-02-02T04:56:08;4.90;99.90
32749;DHT22;19119;52.474;13.710;2023-02-02T04:58:34;5.00;99.90
32749;DHT22;19119;52.474;13.710;2023-02-02T05:01:00;5.00;99.90
32749;DHT22;19119;52.474;13.710;2023-02-02T05:03:25;5.00;99.90
32749;DHT22;19119;52.474;13.710;2023-02-02T05:06:00;5.00;99.90
32749;DHT22;19119;52.474;13.710;2023-02-02T05:08:25;5.00;99.90
32749;DHT22;19119;52.474;13.710;2023-02-02T05:10:51;5.00;99.90
32749;DHT22;19119;52.474;13.710;2023-02-02T05:13:16;4.90;99.90
32749;DHT22;19119;52.474;13.710;2023-02-02T05:15:42;4.90;99.90
32749;DHT22;19119;52.474;13.710;2023-02-02T05:18:07;4.90;99.90
32749;DHT22;19119;52.474;13.710;2023-02-02T05:20:33;4.70;99.90
32749;DHT22;19119;52.474;13.710;2023-02-02T05:22:58;4.70;99.90
32749;DHT22;19119;52.474;13.710;2023-02-02T05:25:24;4.70;99.90
32749;DHT22;19119;52.474;13.710;2023-02-02T05:27:49;4.70;99.90
32749;DHT22;19119;52.474;13.710;2023-02-02T05:30:15;4.60;99.90
32749;DHT22;19119;52.474;13.710;2023-02-02T05:32:41;4.40;99.90
32749;DHT22;19119;52.474;13.710;2023-02-02T05:35:07;4.30;99.90
32749;DHT22;19119;52.474;13.710;2023-02-02T05:37:33;4.30;99.90
32749;DHT22;19119;52.474;13.710;2023-02-02T05:39:59;4.20;99.90
32749;DHT22;19119;52.474;13.710;2023-02-02T05:42:24;4.20;99.90
32749;DHT22;19119;52.474;13.710;2023-02-02T05:44:50;4.30;99.90
32749;DHT22;19119;52.474;13.710;2023-02-02T05:47:15;4.30;99.90
32749;DHT22;19119;52.474;13.710;2023-02-02T05:49:40;4.30;99.90
32749;DHT22;19119;52.474;13.710;2023-02-02T05:52:06;4.30;99.90
32749;DHT22;19119;52.474;13.710;2023-02-02T05:54:32;4.30;99.90
32749;DHT22;19119;52.474;13.710;2023-02-02T05:56:57;4.40;99.90
32749;DHT22;19119;52.474;13.710;2023-02-02T05:59:25;4.30;99.90
32749;DHT22;19119;52.474;13.710;2023-02-02T06:01:51;4.40;99.90
32749;DHT22;19119;52.474;13.710;2023-02-02T06:04:17;4.50;99.90
32749;DHT22;19119;52.474;13.710;2023-02-02T06:06:43;4.40;99.90
32749;DHT22;19119;52.474;13.710;2023-02-02T06:09:09;4.40;99.90
32749;DHT22;19119;52.474;13.710;2023-02-02T06:11:35;4.40;99.90
32749;DHT22;19119;52.474;13.710;2023-02-02T06:14:01;4.50;99.90
32749;DHT22;19119;52.474;13.710;2023-02-02T06:16:26;4.60;99.90
32749;DHT22;19119;52.474;13.710;2023-02-02T06:18:52;4.60;99.90
32749;DHT22;19119;52.474;13.710;2023-02-02T06:21:18;4.60;99.90
32749;DHT22;19119;52.474;13.710;2023-02-02T06:23:47;4.60;99.90
32749;DHT22;19119;52.474;13.710;2023-02-02T06:26:13;4.60;99.90
32749;DHT22;19119;52.474;13.710;2023-02-02T06:28:40;4.60;99.90
32749;DHT22;19119;52.474;13.710;2023-02-02T06:31:07;4.60;99.90
32749;DHT22;19119;52.474;13.710;2023-02-02T06:33:33;4.60;99.90
32749;DHT22;19119;52.474;13.710;2023-02-02T06:36:03;4.60;99.90
32749;DHT22;19119;52.474;13.710;2023-02-02T06:38:30;4.60;99.90
32749;DHT22;19119;52.474;13.710;2023-02-02T06:40:58;4.60;99.90
32749;DHT22;19119;52.474;13.710;2023-02-02T06:43:24;4.60;99.90
32749;DHT22;19119;52.474;13.710;2023-02-02T06:45:50;4.60;99.90
32749;DHT22;19119;52.474;13.710;2023-02-02T06:48:15;4.60;99.90
32749;DHT22;19119;52.474;13.710;2023-02-02T06:50:41;4.60;99.90
32749;DHT22;19119;52.474;13.710;2023-02-02T06:53:06;4.70;99.90
32749;DHT22;19119;52.474;13.710;2023-02-02T06:55:32;4.80;99.90
32749;DHT22;19119;52.474;13.710;2023-02-02T06:57:58;4.70;99.90
32749;DHT22;19119;52.474;13.710;2023-02-02T07:00:24;4.80;99.90
32749;DHT22;19119;52.474;13.710;2023-02-02T07:02:50;4.80;99.90
32749;DHT22;19119;52.474;13.710;2023-02-02T07:05:16;4.90;99.90
32749;DHT22;19119;52.474;13.710;2023-02-02T07:07:44;4.80;99.90
32749;DHT22;19119;52.474;13.710;2023-02-02T07:10:10;4.80;99.90
32749;DHT22;19119;52.474;13.710;2023-02-02T07:12:36;4.90;99.90
32749;DHT22;19119;52.474;13.710;2023-02-02T07:15:02;4.90;99.90
32749;DHT22;19119;52.474;13.710;2023-02-02T07:17:29;4.90;99.90
32749;DHT22;19119;52.474;13.710;2023-02-02T07:19:54;5.00;99.90
32749;DHT22;19119;52.474;13.710;2023-02-02T07:22:20;5.00;99.90
32749;DHT22;19119;52.474;13.710;2023-02-02T07:24:45;5.00;99.90
32749;DHT22;19119;52.474;13.710;2023-02-02T07:27:10;5.00;99.90
32749;DHT22;19119;52.474;13.710;2023-02-02T07:29:36;5.00;99.90
32749;DHT22;19119;52.474;13.710;2023-02-02T07:32:01;5.00;99.90
32749;DHT22;19119;52.474;13.710;2023-02-02T07:34:27;5.10;99.90
32749;DHT22;19119;52.474;13.710;2023-02-02T07:36:52;5.00;99.90
32749;DHT22;19119;52.474;13.710;2023-02-02T07:39:18;5.10;99.90
32749;DHT22;19119;52.474;13.710;2023-02-02T07:41:43;5.10;99.90
32749;DHT22;19119;52.474;13.710;2023-02-02T07:44:12;5.10;99.90
32749;DHT22;19119;52.474;13.710;2023-02-02T07:46:40;5.10;99.90
32749;DHT22;19119;52.474;13.710;2023-02-02T07:49:06;5.20;99.90
32749;DHT22;19119;52.474;13.710;2023-02-02T07:51:31;5.10;99.90
32749;DHT22;19119;52.474;13.710;2023-02-02T07:53:57;5.20;99.90
32749;DHT22;19119;52.474;13.710;2023-02-02T07:56:25;5.10;99.90
32749;DHT22;19119;52.474;13.710;2023-02-02T07:58:55;5.20;99.90
32749;DHT22;19119;52.474;13.710;2023-02-02T08:01:22;5.20;99.90
32749;DHT22;19119;52.474;13.710;2023-02-02T08:03:50;5.20;99.90
32749;DHT22;19119;52.474;13.710;2023-02-02T08:06:22;5.20;99.90
32749;DHT22;19119;52.474;13.710;2023-02-02T08:08:48;5.20;99.90
32749;DHT22;19119;52.474;13.710;2023-02-02T08:11:17;5.30;99.90
32749;DHT22;19119;52.474;13.710;2023-02-02T08:13:43;5.30;99.90
32749;DHT22;19119;52.474;13.710;2023-02-02T08:16:10;5.20;99.90
32749;DHT22;19119;52.474;13.710;2023-02-02T08:18:36;5.20;99.90
32749;DHT22;19119;52.474;13.710;2023-02-02T08:21:04;5.30;99.90
32749;DHT22;19119;52.474;13.710;2023-02-02T08:23:30;5.30;99.90
32749;DHT22;19119;52.474;13.710;2023-02-02T08:28:33;5.40;99.90
32749;DHT22;19119;52.474;13.710;2023-02-02T08:31:08;5.30;99.90
32749;DHT22;19119;52.474;13.710;2023-02-02T08:33:34;5.30;99.90
32749;DHT22;19119;52.474;13.710;2023-02-02T08:35:59;5.30;99.90
32749;DHT22;19119;52.474;13.710;2023-02-02T08:38:25;5.30;99.90
32749;DHT22;19119;52.474;13.710;2023-02-02T08:40:50;5.40;99.90
32749;DHT22;19119;52.474;13.710;2023-02-02T08:43:16;5.40;99.90
32749;DHT22;19119;52.474;13.710;2023-02-02T08:45:42;5.50;99.90
32749;DHT22;19119;52.474;13.710;2023-02-02T08:48:08;5.50;99.90
32749;DHT22;19119;52.474;13.710;2023-02-02T08:50:34;5.50;99.90
32749;DHT22;19119;52.474;13.710;2023-02-02T08:52:59;5.50;99.90
32749;DHT22;19119;52.474;13.710;2023-02-02T08:55:25;5.50;99.90
32749;DHT22;19119;52.474;13.710;2023-02-02T08:57:50;5.70;99.90
32749;DHT22;19119;52.474;13.710;2023-02-02T09:00:16;5.70;99.90
32749;DHT22;19119;52.474;13.710;2023-02-02T09:02:42;5.70;99.90
32749;DHT22;19119;52.474;13.710;2023-02-02T09:05:08;5.70;99.90
32749;DHT22;19119;52.474;13.710;2023-02-02T09:07:33;5.70;99.90
32749;DHT22;19119;52.474;13.710;2023-02-02T09:09:59;5.70;99.90
32749;DHT22;19119;52.474;13.710;2023-02-02T09:12:25;5.80;99.90
32749;DHT22;19119;52.474;13.710;2023-02-02T09:14:51;5.90;99.90
32749;DHT22;19119;52.474;13.710;2023-02-02T09:17:16;6.00;99.90
32749;DHT22;19119;52.474;13.710;2023-02-02T09:19:42;5.90;99.90
32749;DHT22;19119;52.474;13.710;2023-02-02T09:22:07;5.90;99.90
32749;DHT22;19119;52.474;13.710;2023-02-02T09:24:33;5.90;99.90
32749;DHT22;19119;52.474;13.710;2023-02-02T09:26:58;6.00;99.90
32749;DHT22;19119;52.474;13.710;2023-02-02T09:29:23;5.90;99.90
32749;DHT22;19119;52.474;13.710;2023-02-02T09:31:49;5.90;99.90
32749;DHT22;19119;52.474;13.710;2023-02-02T09:34:15;6.00;99.90
32749;DHT22;19119;52.474;13.710;2023-02-02T09:36:42;5.90;99.90
32749;DHT22;19119;52.474;13.710;2023-02-02T09:39:10;5.90;99.90
32749;DHT22;19119;52.474;13.710;2023-02-02T09:44:39;6.00;99.90
32749;DHT22;19119;52.474;13.710;2023-02-02T09:47:17;5.90;99.90
32749;DHT22;19119;52.474;13.710;2023-02-02T09:52:47;6.10;99.90
32749;DHT22;19119;52.474;13.710;2023-02-02T09:55:40;6.20;99.90
32749;DHT22;19119;52.474;13.710;2023-02-02T09:58:38;6.10;99.90
32749;DHT22;19119;52.474;13.710;2023-02-02T10:01:09;6.00;99.90
32749;DHT22;19119;52.474;13.710;2023-02-02T10:06:39;6.00;99.90
32749;DHT22;19119;52.474;13.710;2023-02-02T10:11:47;6.20;99.90
32749;DHT22;19119;52.474;13.710;2023-02-02T10:14:32;6.10;99.90
32749;DHT22;19119;52.474;13.710;2023-02-02T10:17:07;5.90;99.90
32749;DHT22;19119;52.474;13.710;2023-02-02T10:19:39;6.00;99.90
32749;DHT22;19119;52.474;13.710;2023-02-02T10:22:18;6.00;99.90
32749;DHT22;19119;52.474;13.710;2023-02-02T10:24:44;5.90;99.90
32749;DHT22;19119;52.474;13.710;2023-02-02T10:27:15;6.10;99.90
32749;DHT22;19119;52.474;13.710;2023-02-02T10:29:52;6.20;99.90
32749;DHT22;19119;52.474;13.710;2023-02-02T10:35:02;6.60;99.90
32749;DHT22;19119;52.474;13.710;2023-02-02T10:37:53;6.70;99.90
32749;DHT22;19119;52.474;13.710;2023-02-02T10:40:48;6.90;99.90
32749;DHT22;19119;52.474;13.710;2023-02-02T10:43:46;7.10;99.90
32749;DHT22;19119;52.474;13.710;2023-02-02T10:46:30;7.00;99.90
32749;DHT22;19119;52.474;13.710;2023-02-02T10:49:16;7.10;99.90
32749;DHT22;19119;52.474;13.710;2023-02-02T10:51:54;6.90;99.90
32749;DHT22;19119;52.474;13.710;2023-02-02T10:54:31;6.80;99.90
32749;DHT22;19119;52.474;13.710;2023-02-02T10:56:59;6.30;99.90
32749;DHT22;19119;52.474;13.710;2023-02-02T10:59:31;6.10;99.90
32749;DHT22;19119;52.474;13.710;2023-02-02T11:01:57;6.10;99.90
32749;DHT22;19119;52.474;13.710;2023-02-02T11:04:23;6.00;99.90
32749;DHT22;19119;52.474;13.710;2023-02-02T11:07:09;6.20;99.90
32749;DHT22;19119;52.474;13.710;2023-02-02T11:09:40;6.50;99.90
32749;DHT22;19119;52.474;13.710;2023-02-02T11:12:17;6.80;99.90
32749;DHT22;19119;52.474;13.710;2023-02-02T11:15:05;7.00;99.90
32749;DHT22;19119;52.474;13.710;2023-02-02T11:17:31;7.10;99.90
32749;DHT22;19119;52.474;13.710;2023-02-02T11:19:58;7.20;99.90
32749;DHT22;19119;52.474;13.710;2023-02-02T11:22:24;7.10;99.90
32749;DHT22;19119;52.474;13.710;2023-02-02T11:24:51;6.90;99.90
32749;DHT22;19119;52.474;13.710;2023-02-02T11:27:52;6.80;99.90
32749;DHT22;19119;52.474;13.710;2023-02-02T11:32:46;6.70;99.90
32749;DHT22;19119;52.474;13.710;2023-02-02T11:35:18;6.70;99.90
32749;DHT22;19119;52.474;13.710;2023-02-02T11:38:14;6.70;99.90
32749;DHT22;19119;52.474;13.710;2023-02-02T11:40:52;6.60;99.90
32749;DHT22;19119;52.474;13.710;2023-02-02T11:43:36;6.60;99.90
32749;DHT22;19119;52.474;13.710;2023-02-02T11:49:11;6.50;99.90
32749;DHT22;19119;52.474;13.710;2023-02-02T11:51:39;6.30;99.90
32749;DHT22;19119;52.474;13.710;2023-02-02T11:54:14;6.10;99.90
32749;DHT22;19119;52.474;13.710;2023-02-02T11:56:40;5.90;99.90
32749;DHT22;19119;52.474;13.710;2023-02-02T11:59:28;5.60;99.90
32749;DHT22;19119;52.474;13.710;2023-02-02T12:02:22;5.30;99.90
32749;DHT22;19119;52.474;13.710;2023-02-02T12:04:50;5.10;99.90
32749;DHT22;19119;52.474;13.710;2023-02-02T12:07:31;4.70;99.90
32749;DHT22;19119;52.474;13.710;2023-02-02T12:10:00;4.60;99.90
32749;DHT22;19119;52.474;13.710;2023-02-02T12:12:55;4.60;99.90
32749;DHT22;19119;52.474;13.710;2023-02-02T12:18:27;4.70;99.90
32749;DHT22;19119;52.474;13.710;2023-02-02T12:23:50;5.10;99.90
32749;DHT22;19119;52.474;13.710;2023-02-02T12:26:22;5.10;99.90
32749;DHT22;19119;52.474;13.710;2023-02-02T12:29:16;5.10;99.90
32749;DHT22;19119;52.474;13.710;2023-02-02T12:45:18;5.50;99.90
32749;DHT22;19119;52.474;13.710;2023-02-02T12:48:01;5.60;99.90
32749;DHT22;19119;52.474;13.710;2023-02-02T12:50:56;5.50;99.90
32749;DHT22;19119;52.474;13.710;2023-02-02T12:53:41;5.50;99.90
32749;DHT22;19119;52.474;13.710;2023-02-02T12:59:17;5.70;99.90
32749;DHT22;19119;52.474;13.710;2023-02-02T13:02:11;5.70;99.90
32749;DHT22;19119;52.474;13.710;2023-02-02T13:08:05;5.70;99.90
32749;DHT22;19119;52.474;13.710;2023-02-02T13:10:51;5.70;99.90
32749;DHT22;19119;52.474;13.710;2023-02-02T13:13:22;5.80;99.90
32749;DHT22;19119;52.474;13.710;2023-02-02T13:15:56;5.80;99.90
32749;DHT22;19119;52.474;13.710;2023-02-02T13:18:29;5.80;99.90
32749;DHT22;19119;52.474;13.710;2023-02-02T13:21:00;5.90;99.90
32749;DHT22;19119;52.474;13.710;2023-02-02T13:23:31;5.90;99.90
32749;DHT22;19119;52.474;13.710;2023-02-02T13:26:25;5.90;99.90
32749;DHT22;19119;52.474;13.710;2023-02-02T13:31:47;6.00;99.90
32749;DHT22;19119;52.474;13.710;2023-02-02T13:34:20;6.00;99.90
32749;DHT22;19119;52.474;13.710;2023-02-02T13:36:56;6.10;99.90
32749;DHT22;19119;52.474;13.710;2023-02-02T13:39:32;6.10;99.90
32749;DHT22;19119;52.474;13.710;2023-02-02T13:42:00;6.10;99.90
32749;DHT22;19119;52.474;13.710;2023-02-02T13:44:37;6.20;99.90
32749;DHT22;19119;52.474;13.710;2023-02-02T13:47:39;6.20;99.90
32749;DHT22;19119;52.474;13.710;2023-02-02T13:50:14;6.20;99.90
32749;DHT22;19119;52.474;13.710;2023-02-02T13:53:06;6.20;99.90
32749;DHT22;19119;52.474;13.710;2023-02-02T14:01:42;6.00;99.90
32749;DHT22;19119;52.474;13.710;2023-02-02T14:04:23;5.90;99.90
32749;DHT22;19119;52.474;13.710;2023-02-02T14:07:04;5.80;99.90
32749;DHT22;19119;52.474;13.710;2023-02-02T14:09:34;5.80;99.90
32749;DHT22;19119;52.474;13.710;2023-02-02T14:12:04;5.80;99.90
32749;DHT22;19119;52.474;13.710;2023-02-02T14:14:32;5.80;99.90
32749;DHT22;19119;52.474;13.710;2023-02-02T14:19:47;5.70;99.90
32749;DHT22;19119;52.474;13.710;2023-02-02T14:24:47;5.70;99.90
32749;DHT22;19119;52.474;13.710;2023-02-02T14:34:54;5.60;99.90
32749;DHT22;19119;52.474;13.710;2023-02-02T14:45:43;5.50;99.90
32749;DHT22;19119;52.474;13.710;2023-02-02T14:48:20;5.40;99.90
32749;DHT22;19119;52.474;13.710;2023-02-02T14:50:47;5.40;99.90
32749;DHT22;19119;52.474;13.710;2023-02-02T14:53:21;5.30;99.90
32749;DHT22;19119;52.474;13.710;2023-02-02T14:56:14;5.40;99.90
32749;DHT22;19119;52.474;13.710;2023-02-02T14:58:54;5.40;99.90
32749;DHT22;19119;52.474;13.710;2023-02-02T15:01:27;5.40;99.90
32749;DHT22;19119;52.474;13.710;2023-02-02T15:06:46;5.20;99.90
32749;DHT22;19119;52.474;13.710;2023-02-02T15:14:57;5.10;99.90
32749;DHT22;19119;52.474;13.710;2023-02-02T15:20:26;5.00;99.90
32749;DHT22;19119;52.474;13.710;2023-02-02T15:25:39;4.90;99.90
32749;DHT22;19119;52.474;13.710;2023-02-02T15:30:44;4.70;99.90
32749;DHT22;19119;52.474;13.710;2023-02-02T15:33:28;4.60;99.90
32749;DHT22;19119;52.474;13.710;2023-02-02T15:35:57;4.60;99.90
32749;DHT22;19119;52.474;13.710;2023-02-02T15:38:32;4.50;99.90
32749;DHT22;19119;52.474;13.710;2023-02-02T15:43:37;4.30;99.90
32749;DHT22;19119;52.474;13.710;2023-02-02T15:46:05;4.30;99.90
32749;DHT22;19119;52.474;13.710;2023-02-02T15:48:31;4.20;99.90
32749;DHT22;19119;52.474;13.710;2023-02-02T15:51:00;4.10;99.90
32749;DHT22;19119;52.474;13.710;2023-02-02T15:53:32;4.10;99.90
32749;DHT22;19119;52.474;13.710;2023-02-02T15:55:58;4.00;99.90
32749;DHT22;19119;52.474;13.710;2023-02-02T15:58:27;3.90;99.90
32749;DHT22;19119;52.474;13.710;2023-02-02T16:01:01;3.80;99.90
32749;DHT22;19119;52.474;13.710;2023-02-02T16:06:30;3.70;99.90
32749;DHT22;19119;52.474;13.710;2023-02-02T16:08:56;3.50;99.90
32749;DHT22;19119;52.474;13.710;2023-02-02T16:11:22;3.50;99.90
32749;DHT22;19119;52.474;13.710;2023-02-02T16:14:04;3.30;99.90
32749;DHT22;19119;52.474;13.710;2023-02-02T16:16:34;3.20;99.90
32749;DHT22;19119;52.474;13.710;2023-02-02T16:19:22;3.10;99.90
32749;DHT22;19119;52.474;13.710;2023-02-02T16:21:55;2.90;99.90
32749;DHT22;19119;52.474;13.710;2023-02-02T16:24:33;2.80;99.90
32749;DHT22;19119;52.474;13.710;2023-02-02T16:27:03;2.60;99.90
32749;DHT22;19119;52.474;13.710;2023-02-02T16:29:29;2.50;99.90
32749;DHT22;19119;52.474;13.710;2023-02-02T16:31:55;2.30;99.90
32749;DHT22;19119;52.474;13.710;2023-02-02T16:37:30;2.20;99.90
32749;DHT22;19119;52.474;13.710;2023-02-02T16:40:23;2.10;99.90
32749;DHT22;19119;52.474;13.710;2023-02-02T16:43:06;1.90;99.90
32749;DHT22;19119;52.474;13.710;2023-02-02T16:45:34;1.80;99.90
32749;DHT22;19119;52.474;13.710;2023-02-02T16:48:26;1.80;99.90
32749;DHT22;19119;52.474;13.710;2023-02-02T16:53:49;1.50;99.90
32749;DHT22;19119;52.474;13.710;2023-02-02T16:58:48;1.50;99.90
32749;DHT22;19119;52.474;13.710;2023-02-02T17:01:14;1.30;99.90
32749;DHT22;19119;52.474;13.710;2023-02-02T17:03:48;1.20;99.90
32749;DHT22;19119;52.474;13.710;2023-02-02T17:06:15;1.20;99.90
32749;DHT22;19119;52.474;13.710;2023-02-02T17:08:41;1.10;99.90
32749;DHT22;19119;52.474;13.710;2023-02-02T17:13:38;1.10;99.90
32749;DHT22;19119;52.474;13.710;2023-02-02T17:16:05;1.00;99.90
32749;DHT22;19119;52.474;13.710;2023-02-02T17:18:31;0.90;99.90
32749;DHT22;19119;52.474;13.710;2023-02-02T17:20:57;0.90;99.90
32749;DHT22;19119;52.474;13.710;2023-02-02T17:23:28;0.90;99.90
32749;DHT22;19119;52.474;13.710;2023-02-02T17:25:55;0.90;99.90
32749;DHT22;19119;52.474;13.710;2023-02-02T17:28:23;0.90;99.90
32749;DHT22;19119;52.474;13.710;2023-02-02T17:31:13;0.90;99.90
32749;DHT22;19119;52.474;13.710;2023-02-02T17:33:40;0.90;99.90
32749;DHT22;19119;52.474;13.710;2023-02-02T17:36:09;0.90;99.90
32749;DHT22;19119;52.474;13.710;2023-02-02T17:38:36;0.90;99.90
32749;DHT22;19119;52.474;13.710;2023-02-02T17:41:02;0.90;99.90
32749;DHT22;19119;52.474;13.710;2023-02-02T17:43:32;0.80;99.90
32749;DHT22;19119;52.474;13.710;2023-02-02T17:45:57;0.80;99.90
32749;DHT22;19119;52.474;13.710;2023-02-02T17:48:23;0.70;99.90
32749;DHT22;19119;52.474;13.710;2023-02-02T17:50:49;0.70;99.90
32749;DHT22;19119;52.474;13.710;2023-02-02T17:53:17;0.60;99.90
32749;DHT22;19119;52.474;13.710;2023-02-02T17:55:44;0.70;99.90
32749;DHT22;19119;52.474;13.710;2023-02-02T17:58:11;0.60;99.90
32749;DHT22;19119;52.474;13.710;2023-02-02T18:00:39;0.60;99.90
32749;DHT22;19119;52.474;13.710;2023-02-02T18:03:25;0.60;99.90